Time;durP1;ratioP1;P1;durP2;ratioP2;P2;SDS_P1;SDS_P2;PMS_P1;PMS_P2;Temp;Humidity;BMP_temperature;BMP_pressure;BME280_temperature;BME280_humidity;BME280_pressure;Samples;Min_cycle;Max_cycle;Signal;HPM_P1;HPM_P2
2023/12/21 00:02:21;;;;;;;0.68;0.40;;;;;;;;;;5038508;28;20040;-59
2023/12/21 00:04:49;;;;;;;1.45;0.50;;;;;;;;;;5032909;28;20053;-58
2023/12/21 00:07:15;;;;;;;1.75;0.70;;;;;;;;;;5036551;28;20040;-59
2023/12/21 00:09:41;;;;;;;2.20;0.40;;;;;;;;;;5039190;28;20053;-58
2023/12/21 00:12:07;;;;;;;1.70;0.50;;;;;;;;;;5031780;28;20500;-59
2023/12/21 00:14:33;;;;;;;0.75;0.60;;;;;;;;;;5031270;28;20080;-60
2023/12/21 00:16:59;;;;;;;0.52;0.50;;;;;;;;;;5033179;28;20048;-58
2023/12/21 00:19:25;;;;;;;0.40;0.40;;;;;;;;;;5034899;28;20052;-59
2023/12/21 00:21:52;;;;;;;0.93;0.57;;;;;;;;;;5030223;28;20033;-59
2023/12/21 00:24:18;;;;;;;0.55;0.45;;;;;;;;;;5033803;28;20041;-58
2023/12/21 00:26:44;;;;;;;0.85;0.60;;;;;;;;;;5029582;28;20045;-58
2023/12/21 00:29:10;;;;;;;1.33;0.40;;;;;;;;;;5033461;28;20045;-58
2023/12/21 00:31:36;;;;;;;0.80;0.50;;;;;;;;;;5033448;28;20037;-56
2023/12/21 00:34:02;;;;;;;2.60;0.50;;;;;;;;;;5030513;28;20037;-57
2023/12/21 00:36:28;;;;;;;1.77;0.50;;;;;;;;;;5033272;28;20080;-58
2023/12/21 00:38:54;;;;;;;1.45;0.50;;;;;;;;;;5036102;28;20060;-61
2023/12/21 00:41:21;;;;;;;0.65;0.40;;;;;;;;;;5034517;28;20037;-60
2023/12/21 00:43:47;;;;;;;0.50;0.30;;;;;;;;;;5036871;28;20033;-58
2023/12/21 00:46:13;;;;;;;1.05;0.50;;;;;;;;;;5035162;28;20037;-59
2023/12/21 00:48:39;;;;;;;0.95;0.40;;;;;;;;;;5033392;28;20056;-58
2023/12/21 00:51:06;;;;;;;0.40;0.40;;;;;;;;;;5037614;28;20056;-60
2023/12/21 00:53:32;;;;;;;0.80;0.38;;;;;;;;;;5032669;28;20378;-61
2023/12/21 00:55:58;;;;;;;0.82;0.45;;;;;;;;;;5037465;28;20060;-60
2023/12/21 00:58:24;;;;;;;0.75;0.40;;;;;;;;;;5034471;28;20531;-59
2023/12/21 01:00:50;;;;;;;0.68;0.35;;;;;;;;;;5031060;28;20033;-59
2023/12/21 01:03:16;;;;;;;0.70;0.50;;;;;;;;;;5029440;28;20493;-58
2023/12/21 01:05:42;;;;;;;0.73;0.40;;;;;;;;;;5030557;28;20053;-59
2023/12/21 01:08:08;;;;;;;0.60;0.40;;;;;;;;;;5035604;28;20052;-58
2023/12/21 01:10:38;;;;;;;0.70;0.70;;;;;;;;;;5032782;28;20045;-59
2023/12/21 01:13:06;;;;;;;0.60;0.32;;;;;;;;;;5028591;28;20021;-61
2023/12/21 01:15:32;;;;;;;0.57;0.40;;;;;;;;;;5031802;28;20396;-59
2023/12/21 01:17:58;;;;;;;0.40;0.40;;;;;;;;;;5032528;28;20228;-61
2023/12/21 01:20:24;;;;;;;0.63;0.60;;;;;;;;;;5034327;28;20049;-59
2023/12/21 01:22:50;;;;;;;0.30;0.30;;;;;;;;;;5031908;28;20037;-60
2023/12/21 01:25:16;;;;;;;0.30;0.30;;;;;;;;;;5031086;28;20049;-60
2023/12/21 01:27:42;;;;;;;0.30;0.30;;;;;;;;;;5030725;28;20515;-60
2023/12/21 01:30:09;;;;;;;0.50;0.50;;;;;;;;;;5032969;28;20040;-60
2023/12/21 01:32:35;;;;;;;0.40;0.40;;;;;;;;;;5033006;28;20068;-60
2023/12/21 01:35:01;;;;;;;0.30;0.30;;;;;;;;;;5031591;28;20511;-60
2023/12/21 01:37:27;;;;;;;0.40;0.40;;;;;;;;;;5036042;28;20045;-58
2023/12/21 01:39:53;;;;;;;0.85;0.40;;;;;;;;;;5032464;28;20042;-61
2023/12/21 01:42:20;;;;;;;0.98;0.52;;;;;;;;;;5031587;28;20396;-61
2023/12/21 01:44:46;;;;;;;2.00;0.47;;;;;;;;;;5036215;28;20033;-60
2023/12/21 01:47:12;;;;;;;0.40;0.40;;;;;;;;;;5037243;28;20056;-59
2023/12/21 01:49:40;;;;;;;1.60;0.52;;;;;;;;;;5030313;28;20030;-60
2023/12/21 01:52:07;;;;;;;0.43;0.43;;;;;;;;;;5038037;28;20046;-60
2023/12/21 01:54:35;;;;;;;1.20;0.57;;;;;;;;;;5031941;28;20061;-57
2023/12/21 01:57:01;;;;;;;0.35;0.30;;;;;;;;;;5034972;28;21261;-60
2023/12/21 01:59:29;;;;;;;0.65;0.40;;;;;;;;;;5030240;28;20044;-58
2023/12/21 02:01:55;;;;;;;0.40;0.40;;;;;;;;;;5036405;28;20052;-59
2023/12/21 02:04:21;;;;;;;0.40;0.40;;;;;;;;;;5035202;28;20046;-61
2023/12/21 02:06:47;;;;;;;0.75;0.40;;;;;;;;;;5037948;28;20045;-60
2023/12/21 02:09:14;;;;;;;0.40;0.40;;;;;;;;;;5034193;28;20056;-61
2023/12/21 02:11:40;;;;;;;1.75;0.47;;;;;;;;;;5027788;28;20045;-58
2023/12/21 02:14:06;;;;;;;2.17;0.45;;;;;;;;;;5029855;28;20041;-60
2023/12/21 02:16:51;;;;;;;0.77;0.40;;;;;;;;;;5032078;28;20033;-59
2023/12/21 02:19:19;;;;;;;0.40;0.35;;;;;;;;;;5031276;28;20033;-59
2023/12/21 02:21:47;;;;;;;0.50;0.30;;;;;;;;;;5032587;28;20041;-59
2023/12/21 02:24:14;;;;;;;1.27;0.40;;;;;;;;;;5028413;28;20056;-59
2023/12/21 02:26:41;;;;;;;0.40;0.38;;;;;;;;;;5033701;28;20052;-61
2023/12/21 02:29:08;;;;;;;0.30;0.30;;;;;;;;;;5034872;28;20025;-58
2023/12/21 02:31:35;;;;;;;1.25;0.43;;;;;;;;;;5030394;28;20057;-58
2023/12/21 02:34:02;;;;;;;0.82;0.40;;;;;;;;;;5035123;28;20068;-59
2023/12/21 02:36:28;;;;;;;0.28;0.28;;;;;;;;;;5035172;28;20037;-55
2023/12/21 02:38:54;;;;;;;0.82;0.30;;;;;;;;;;5033200;28;20049;-60
2023/12/21 02:41:20;;;;;;;0.30;0.30;;;;;;;;;;5036749;28;20045;-60
2023/12/21 02:43:46;;;;;;;0.70;0.32;;;;;;;;;;5033158;28;20037;-60
2023/12/21 02:46:12;;;;;;;0.30;0.30;;;;;;;;;;5039900;28;20042;-61
2023/12/21 02:48:38;;;;;;;0.30;0.20;;;;;;;;;;5039903;28;20052;-59
2023/12/21 02:51:04;;;;;;;0.40;0.40;;;;;;;;;;5040621;28;20037;-59
2023/12/21 02:53:31;;;;;;;0.30;0.30;;;;;;;;;;5032153;28;20500;-60
2023/12/21 02:55:57;;;;;;;0.22;0.22;;;;;;;;;;5040297;28;20041;-60
2023/12/21 02:58:23;;;;;;;0.40;0.40;;;;;;;;;;5042772;28;20041;-59
2023/12/21 03:00:50;;;;;;;0.30;0.30;;;;;;;;;;5039135;28;20045;-58
2023/12/21 03:03:16;;;;;;;0.47;0.30;;;;;;;;;;5039905;28;20411;-59
2023/12/21 03:05:42;;;;;;;0.30;0.30;;;;;;;;;;5040315;28;20048;-58
2023/12/21 03:08:08;;;;;;;0.30;0.30;;;;;;;;;;5039045;28;20037;-59
2023/12/21 03:10:34;;;;;;;0.30;0.30;;;;;;;;;;5035222;28;20052;-57
2023/12/21 03:13:00;;;;;;;0.50;0.50;;;;;;;;;;5035945;28;20527;-60
2023/12/21 03:15:26;;;;;;;0.43;0.30;;;;;;;;;;5034980;28;20045;-59
2023/12/21 03:17:52;;;;;;;0.30;0.30;;;;;;;;;;5035172;28;20034;-59
2023/12/21 03:20:18;;;;;;;0.30;0.30;;;;;;;;;;5035866;28;20046;-59
2023/12/21 03:22:44;;;;;;;0.30;0.25;;;;;;;;;;5035181;28;20033;-59
2023/12/21 03:25:10;;;;;;;0.40;0.40;;;;;;;;;;5034869;28;20076;-59
2023/12/21 03:27:36;;;;;;;0.30;0.30;;;;;;;;;;5036987;28;20046;-59
2023/12/21 03:30:03;;;;;;;0.40;0.40;;;;;;;;;;5034215;28;20057;-58
2023/12/21 03:32:29;;;;;;;0.98;0.30;;;;;;;;;;5037164;28;20051;-58
2023/12/21 03:34:56;;;;;;;0.25;0.25;;;;;;;;;;5031512;28;20042;-58
2023/12/21 03:37:27;;;;;;;0.30;0.30;;;;;;;;;;5040793;28;20049;-59
2023/12/21 03:39:55;;;;;;;0.38;0.20;;;;;;;;;;5037874;28;20045;-59
2023/12/21 03:42:22;;;;;;;0.20;0.20;;;;;;;;;;5038662;28;20611;-59
2023/12/21 03:44:48;;;;;;;0.30;0.30;;;;;;;;;;5036132;28;20054;-59
2023/12/21 03:47:14;;;;;;;0.40;0.40;;;;;;;;;;5042154;28;20610;-59
2023/12/21 03:49:40;;;;;;;0.22;0.22;;;;;;;;;;5039946;28;20554;-59
2023/12/21 03:52:07;;;;;;;0.32;0.25;;;;;;;;;;5040300;28;20041;-60
2023/12/21 03:54:33;;;;;;;0.30;0.30;;;;;;;;;;5037318;28;20042;-58
2023/12/21 03:56:59;;;;;;;1.02;0.30;;;;;;;;;;5036851;28;20036;-59
2023/12/21 03:59:25;;;;;;;0.20;0.20;;;;;;;;;;5037613;28;20052;-59
2023/12/21 04:01:52;;;;;;;0.20;0.20;;;;;;;;;;5032378;28;20066;-59
2023/12/21 04:04:18;;;;;;;0.30;0.30;;;;;;;;;;5032811;28;20045;-59
2023/12/21 04:06:45;;;;;;;0.20;0.20;;;;;;;;;;5039053;28;20048;-58
2023/12/21 04:09:11;;;;;;;0.32;0.30;;;;;;;;;;5032811;28;20040;-59
2023/12/21 04:11:37;;;;;;;0.30;0.30;;;;;;;;;;5033704;28;20041;-60
2023/12/21 04:14:03;;;;;;;0.20;0.20;;;;;;;;;;5033654;28;20045;-60
2023/12/21 04:16:29;;;;;;;1.13;0.43;;;;;;;;;;5034735;28;20532;-60
2023/12/21 04:18:55;;;;;;;0.32;0.32;;;;;;;;;;5034130;28;20491;-59
2023/12/21 04:21:21;;;;;;;0.35;0.35;;;;;;;;;;5033008;28;20045;-60
2023/12/21 04:23:47;;;;;;;0.52;0.40;;;;;;;;;;5034286;28;20030;-60
2023/12/21 04:26:20;;;;;;;0.20;0.20;;;;;;;;;;5034085;28;20029;-60
2023/12/21 04:28:48;;;;;;;1.17;0.20;;;;;;;;;;5032644;28;20080;-59
2023/12/21 04:31:21;;;;;;;1.55;0.60;;;;;;;;;;5036236;28;20045;-60
2023/12/21 04:33:51;;;;;;;0.40;0.40;;;;;;;;;;5035864;28;20036;-60
2023/12/21 04:36:20;;;;;;;0.20;0.20;;;;;;;;;;5036868;28;20041;-59
2023/12/21 04:38:46;;;;;;;0.45;0.38;;;;;;;;;;5035316;28;20048;-61
2023/12/21 04:41:12;;;;;;;0.22;0.22;;;;;;;;;;5040001;28;20538;-60
2023/12/21 04:43:38;;;;;;;0.30;0.30;;;;;;;;;;5037404;28;20477;-60
2023/12/21 04:46:05;;;;;;;1.25;0.60;;;;;;;;;;5038130;28;20034;-60
2023/12/21 04:48:32;;;;;;;0.40;0.40;;;;;;;;;;5032756;28;20049;-60
2023/12/21 04:50:58;;;;;;;1.45;0.52;;;;;;;;;;5038232;28;20037;-61
2023/12/21 04:53:24;;;;;;;0.30;0.30;;;;;;;;;;5031644;28;20523;-60
2023/12/21 04:55:50;;;;;;;0.32;0.30;;;;;;;;;;5036903;28;20103;-61
2023/12/21 04:58:18;;;;;;;0.50;0.40;;;;;;;;;;5040474;28;20033;-60
2023/12/21 05:00:50;;;;;;;0.20;0.20;;;;;;;;;;5031564;28;20056;-61
2023/12/21 05:03:20;;;;;;;0.30;0.22;;;;;;;;;;5037801;28;20029;-61
2023/12/21 05:05:46;;;;;;;0.38;0.35;;;;;;;;;;5031004;28;20049;-60
2023/12/21 05:08:13;;;;;;;0.20;0.20;;;;;;;;;;5030302;28;20033;-60
2023/12/21 05:10:40;;;;;;;0.47;0.35;;;;;;;;;;5034357;28;20059;-59
2023/12/21 05:13:07;;;;;;;0.20;0.20;;;;;;;;;;5033586;28;20037;-60
2023/12/21 05:15:33;;;;;;;0.38;0.38;;;;;;;;;;5028996;28;20057;-61
2023/12/21 05:17:59;;;;;;;0.30;0.30;;;;;;;;;;5032886;28;20040;-60
2023/12/21 05:20:25;;;;;;;0.65;0.40;;;;;;;;;;5035737;28;20040;-59
2023/12/21 05:22:51;;;;;;;0.30;0.30;;;;;;;;;;5032519;28;20029;-60
2023/12/21 05:25:17;;;;;;;0.50;0.50;;;;;;;;;;5035359;28;20512;-60
2023/12/21 05:27:43;;;;;;;1.85;0.80;;;;;;;;;;5033325;28;20435;-60
2023/12/21 05:30:10;;;;;;;0.20;0.20;;;;;;;;;;5033970;28;20504;-60
2023/12/21 05:32:36;;;;;;;0.20;0.20;;;;;;;;;;5035358;28;20053;-60
2023/12/21 05:35:03;;;;;;;0.28;0.20;;;;;;;;;;5030873;28;20033;-60
2023/12/21 05:37:29;;;;;;;0.40;0.40;;;;;;;;;;5032982;28;20045;-60
2023/12/21 05:39:55;;;;;;;0.50;0.50;;;;;;;;;;5037881;28;20439;-60
2023/12/21 05:42:22;;;;;;;0.20;0.20;;;;;;;;;;5031028;28;20525;-58
2023/12/21 05:44:48;;;;;;;0.35;0.35;;;;;;;;;;5031921;28;20041;-61
2023/12/21 05:47:14;;;;;;;0.30;0.30;;;;;;;;;;5033440;28;20040;-60
2023/12/21 05:49:40;;;;;;;0.50;0.40;;;;;;;;;;5037588;28;20384;-60
2023/12/21 05:52:06;;;;;;;1.45;0.47;;;;;;;;;;5035812;28;20025;-60
2023/12/21 05:54:32;;;;;;;0.60;0.50;;;;;;;;;;5030622;28;20029;-58
2023/12/21 05:56:59;;;;;;;0.75;0.60;;;;;;;;;;5035594;28;20057;-61
2023/12/21 05:59:25;;;;;;;0.25;0.25;;;;;;;;;;5036333;28;20037;-60
2023/12/21 06:01:51;;;;;;;0.57;0.50;;;;;;;;;;5030585;28;20481;-59
2023/12/21 06:04:17;;;;;;;0.40;0.40;;;;;;;;;;5026877;28;20030;-58
2023/12/21 06:06:46;;;;;;;0.80;0.30;;;;;;;;;;5029802;28;20053;-61
2023/12/21 06:09:13;;;;;;;0.75;0.50;;;;;;;;;;5031507;28;20052;-58
2023/12/21 06:11:40;;;;;;;0.30;0.30;;;;;;;;;;5032126;28;20045;-56
2023/12/21 06:14:06;;;;;;;0.30;0.30;;;;;;;;;;5035149;28;20036;-58
2023/12/21 06:16:32;;;;;;;1.17;0.70;;;;;;;;;;5037742;28;20053;-59
2023/12/21 06:18:59;;;;;;;1.50;0.60;;;;;;;;;;5037550;28;20512;-59
2023/12/21 06:21:25;;;;;;;1.70;1.17;;;;;;;;;;5039715;28;20053;-58
2023/12/21 06:23:52;;;;;;;0.68;0.45;;;;;;;;;;5037765;28;20041;-58
2023/12/21 06:26:18;;;;;;;0.45;0.45;;;;;;;;;;5036505;28;20049;-59
2023/12/21 06:28:44;;;;;;;0.28;0.28;;;;;;;;;;5025500;28;20029;-56
2023/12/21 06:31:14;;;;;;;0.60;0.35;;;;;;;;;;5041350;28;20528;-58
2023/12/21 06:33:40;;;;;;;1.00;0.20;;;;;;;;;;5036732;28;20033;-57
2023/12/21 06:36:07;;;;;;;0.20;0.20;;;;;;;;;;5039771;28;20033;-57
2023/12/21 06:38:33;;;;;;;0.45;0.45;;;;;;;;;;5042392;28;20048;-59
2023/12/21 06:40:59;;;;;;;0.20;0.20;;;;;;;;;;5036984;28;20033;-58
2023/12/21 06:43:25;;;;;;;0.30;0.30;;;;;;;;;;5038237;28;20103;-57
2023/12/21 06:45:51;;;;;;;0.40;0.40;;;;;;;;;;5040193;28;20033;-58
2023/12/21 06:48:17;;;;;;;0.40;0.40;;;;;;;;;;5044539;28;20610;-58
2023/12/21 06:50:44;;;;;;;1.08;0.50;;;;;;;;;;5040690;28;20072;-59
2023/12/21 06:53:15;;;;;;;0.50;0.50;;;;;;;;;;5034411;28;20424;-57
2023/12/21 06:55:42;;;;;;;1.30;0.63;;;;;;;;;;5037198;28;20515;-59
2023/12/21 06:58:08;;;;;;;1.35;0.70;;;;;;;;;;5043126;28;20419;-55
2023/12/21 07:00:35;;;;;;;0.60;0.50;;;;;;;;;;5036014;28;20046;-53
2023/12/21 07:03:01;;;;;;;1.02;0.57;;;;;;;;;;5034596;28;20041;-56
2023/12/21 07:05:27;;;;;;;0.88;0.30;;;;;;;;;;5034375;28;20028;-57
2023/12/21 07:07:57;;;;;;;0.20;0.20;;;;;;;;;;5034175;28;20045;-56
2023/12/21 07:10:23;;;;;;;1.77;0.50;;;;;;;;;;5036364;28;20042;-56
2023/12/21 07:12:49;;;;;;;0.55;0.30;;;;;;;;;;5036110;28;20492;-57
2023/12/21 07:15:16;;;;;;;0.75;0.40;;;;;;;;;;5036002;28;20029;-55
2023/12/21 07:17:42;;;;;;;2.13;0.50;;;;;;;;;;5037337;28;20132;-56
2023/12/21 07:20:09;;;;;;;0.50;0.30;;;;;;;;;;5040981;22;20056;-59
2023/12/21 07:22:35;;;;;;;0.40;0.40;;;;;;;;;;4974807;28;20034;-57
2023/12/21 07:25:01;;;;;;;4.07;1.38;;;;;;;;;;4967719;28;20052;-56
2023/12/21 07:27:28;;;;;;;0.90;0.60;;;;;;;;;;4968195;28;20039;-58
2023/12/21 07:29:54;;;;;;;1.13;0.60;;;;;;;;;;4977442;28;20499;-58
2023/12/21 07:32:20;;;;;;;0.73;0.35;;;;;;;;;;4962877;28;20062;-58
2023/12/21 07:34:46;;;;;;;1.63;0.63;;;;;;;;;;4962675;28;20040;-62
2023/12/21 07:37:16;;;;;;;0.30;0.30;;;;;;;;;;4963678;28;20039;-57
2023/12/21 07:39:43;;;;;;;0.40;0.40;;;;;;;;;;4965471;28;20046;-60
2023/12/21 07:42:09;;;;;;;0.60;0.43;;;;;;;;;;4962062;28;20050;-60
2023/12/21 07:44:37;;;;;;;0.98;0.40;;;;;;;;;;4961421;28;20045;-58
2023/12/21 07:47:03;;;;;;;1.55;0.40;;;;;;;;;;4949708;28;20550;-56
2023/12/21 07:49:29;;;;;;;0.30;0.30;;;;;;;;;;4947718;28;20422;-57
2023/12/21 07:51:55;;;;;;;0.55;0.40;;;;;;;;;;4980767;28;20031;-59
2023/12/21 07:54:21;;;;;;;1.15;0.35;;;;;;;;;;4967451;28;20045;-62
2023/12/21 07:56:48;;;;;;;0.63;0.47;;;;;;;;;;4975778;28;20045;-56
2023/12/21 07:59:14;;;;;;;0.50;0.50;;;;;;;;;;4972953;28;20042;-58
2023/12/21 08:01:40;;;;;;;0.98;0.50;;;;;;;;;;4974764;28;20078;-58
2023/12/21 08:04:08;;;;;;;0.50;0.40;;;;;;;;;;4989010;28;20053;-57
2023/12/21 08:06:35;;;;;;;0.30;0.30;;;;;;;;;;4992018;28;20049;-55
2023/12/21 08:09:01;;;;;;;1.27;0.40;;;;;;;;;;4979890;28;20054;-59
2023/12/21 08:11:27;;;;;;;1.02;0.50;;;;;;;;;;4982248;28;20418;-62
2023/12/21 08:13:53;;;;;;;0.40;0.40;;;;;;;;;;4985799;28;20055;-60
2023/12/21 08:16:20;;;;;;;0.38;0.30;;;;;;;;;;4994515;28;20032;-59
2023/12/21 08:18:46;;;;;;;0.80;0.50;;;;;;;;;;4978729;28;20043;-60
2023/12/21 08:21:12;;;;;;;1.35;0.80;;;;;;;;;;4976094;28;20043;-57
2023/12/21 08:23:39;;;;;;;0.40;0.40;;;;;;;;;;4975724;28;20052;-58
2023/12/21 08:26:06;;;;;;;0.82;0.60;;;;;;;;;;4991964;28;20044;-59
2023/12/21 08:28:32;;;;;;;1.50;0.73;;;;;;;;;;4971124;28;20525;-59
2023/12/21 08:30:59;;;;;;;1.30;0.77;;;;;;;;;;4971336;28;20046;-61
2023/12/21 08:33:25;;;;;;;0.30;0.30;;;;;;;;;;4973930;28;20058;-56
2023/12/21 08:35:52;;;;;;;0.57;0.43;;;;;;;;;;4982099;28;20039;-56
2023/12/21 08:38:18;;;;;;;0.75;0.60;;;;;;;;;;4974665;28;20052;-58
2023/12/21 08:40:47;;;;;;;1.83;0.70;;;;;;;;;;4971069;28;20529;-58
2023/12/21 08:43:14;;;;;;;0.55;0.40;;;;;;;;;;4972009;28;20049;-57
2023/12/21 08:45:40;;;;;;;0.40;0.40;;;;;;;;;;4981518;28;20040;-58
2023/12/21 08:48:06;;;;;;;0.60;0.60;;;;;;;;;;4960449;28;20052;-58
2023/12/21 08:50:32;;;;;;;0.32;0.30;;;;;;;;;;4954054;28;20430;-58
2023/12/21 08:53:00;;;;;;;1.05;0.75;;;;;;;;;;4968097;28;20042;-60
2023/12/21 08:55:29;;;;;;;0.52;0.50;;;;;;;;;;4964780;28;20064;-58
2023/12/21 08:57:57;;;;;;;0.73;0.50;;;;;;;;;;4970521;28;20411;-56
2023/12/21 09:00:24;;;;;;;0.75;0.32;;;;;;;;;;5000488;28;20060;-61
2023/12/21 09:02:51;;;;;;;0.30;0.30;;;;;;;;;;5000785;28;20514;-56
2023/12/21 09:05:17;;;;;;;0.35;0.32;;;;;;;;;;5016010;28;20042;-59
2023/12/21 09:07:44;;;;;;;0.77;0.40;;;;;;;;;;5009405;28;20053;-57
2023/12/21 09:10:10;;;;;;;0.40;0.40;;;;;;;;;;5002828;28;20048;-62
2023/12/21 09:12:37;;;;;;;0.57;0.50;;;;;;;;;;4996457;28;20059;-59
2023/12/21 09:15:04;;;;;;;0.30;0.30;;;;;;;;;;5008375;28;20037;-59
2023/12/21 09:17:30;;;;;;;0.38;0.38;;;;;;;;;;4999749;28;20460;-61
2023/12/21 09:19:57;;;;;;;1.15;0.63;;;;;;;;;;4979401;28;20493;-59
2023/12/21 09:22:23;;;;;;;0.85;0.60;;;;;;;;;;4964428;28;20046;-58
2023/12/21 09:24:49;;;;;;;0.68;0.68;;;;;;;;;;4961117;28;20381;-59
2023/12/21 09:27:15;;;;;;;0.38;0.35;;;;;;;;;;4960748;28;20046;-59
2023/12/21 09:29:44;;;;;;;0.65;0.57;;;;;;;;;;4974969;28;20491;-59
2023/12/21 09:32:10;;;;;;;0.40;0.38;;;;;;;;;;4966739;28;20061;-58
2023/12/21 09:34:36;;;;;;;0.95;0.40;;;;;;;;;;4967007;28;20047;-59
2023/12/21 09:37:06;;;;;;;1.27;0.57;;;;;;;;;;4962121;28;20043;-58
2023/12/21 09:39:32;;;;;;;0.77;0.40;;;;;;;;;;4961407;28;20035;-57
2023/12/21 09:42:01;;;;;;;0.60;0.40;;;;;;;;;;4963090;28;20050;-56
2023/12/21 09:44:31;;;;;;;0.40;0.40;;;;;;;;;;4957095;28;20524;-58
2023/12/21 09:47:00;;;;;;;0.68;0.57;;;;;;;;;;4973972;28;20430;-58
2023/12/21 09:49:27;;;;;;;2.77;1.20;;;;;;;;;;4965504;28;20035;-55
2023/12/21 09:51:54;;;;;;;1.73;0.88;;;;;;;;;;4983198;28;20115;-58
2023/12/21 09:54:22;;;;;;;0.47;0.30;;;;;;;;;;4988110;28;20109;-59
2023/12/21 09:56:50;;;;;;;3.15;0.70;;;;;;;;;;4979509;28;20041;-56
2023/12/21 09:59:16;;;;;;;1.05;0.60;;;;;;;;;;4974269;28;20043;-57
2023/12/21 10:01:42;;;;;;;9.68;4.35;;;;;;;;;;4982659;28;20679;-58
2023/12/21 10:04:09;;;;;;;1.02;0.55;;;;;;;;;;4999980;28;20512;-59
2023/12/21 10:06:35;;;;;;;0.93;0.82;;;;;;;;;;4954870;28;20044;-58
2023/12/21 10:09:04;;;;;;;0.93;0.60;;;;;;;;;;4980790;28;20039;-61
2023/12/21 10:11:31;;;;;;;1.55;0.50;;;;;;;;;;4980874;28;20039;-58
2023/12/21 10:14:01;;;;;;;2.03;1.45;;;;;;;;;;4991643;28;20500;-59
2023/12/21 10:16:27;;;;;;;;;;;;;;;;;;4992272;28;20044;-59
2023/12/21 10:18:53;;;;;;;0.47;0.40;;;;;;;;;;4977008;28;19994;-58
2023/12/21 10:21:21;;;;;;;1.27;0.60;;;;;;;;;;4977222;28;20051;-60
2023/12/21 10:23:48;;;;;;;0.70;0.50;;;;;;;;;;4985987;28;20041;-60
2023/12/21 10:26:14;;;;;;;0.55;0.40;;;;;;;;;;4989291;28;20048;-54
2023/12/21 10:28:42;;;;;;;1.30;0.70;;;;;;;;;;4973405;28;20054;-58
2023/12/21 10:31:09;;;;;;;3.33;0.65;;;;;;;;;;4972645;28;20077;-58
2023/12/21 10:33:35;;;;;;;1.55;0.70;;;;;;;;;;4981706;28;20040;-57
2023/12/21 10:36:03;;;;;;;1.35;0.82;;;;;;;;;;4989760;28;20052;-59
2023/12/21 10:38:29;;;;;;;1.00;0.43;;;;;;;;;;4975533;28;20055;-62
2023/12/21 10:40:56;;;;;;;1.42;0.70;;;;;;;;;;4974626;28;20398;-61
2023/12/21 10:43:23;;;;;;;0.93;0.50;;;;;;;;;;4968995;28;20032;-58
2023/12/21 10:45:49;;;;;;;6.63;3.22;;;;;;;;;;4969943;28;20035;-58
2023/12/21 10:48:19;;;;;;;0.35;0.28;;;;;;;;;;4956960;28;20028;-57
2023/12/21 10:50:46;;;;;;;;;;;;;;;;;;4972448;28;20502;-57
2023/12/21 10:53:13;;;;;;;5.15;1.20;;;;;;;;;;4981690;28;19914;-58
2023/12/21 10:55:43;;;;;;;0.80;0.50;;;;;;;;;;4982256;28;20050;-58
2023/12/21 10:58:10;;;;;;;4.05;1.58;;;;;;;;;;4996884;28;20041;-60
2023/12/21 11:00:38;;;;;;;0.90;0.80;;;;;;;;;;5009828;28;20404;-60
2023/12/21 11:03:07;;;;;;;1.73;1.10;;;;;;;;;;5002397;28;20054;-61
2023/12/21 11:05:34;;;;;;;2.42;0.82;;;;;;;;;;5002641;28;20493;-58
2023/12/21 11:08:01;;;;;;;37.00;10.38;;;;;;;;;;5017638;28;20040;-58
2023/12/21 11:10:27;;;;;;;1.02;0.60;;;;;;;;;;5004540;28;20055;-60
2023/12/21 11:12:53;;;;;;;0.50;0.50;;;;;;;;;;5002766;28;20058;-58
2023/12/21 11:15:20;;;;;;;1.45;0.75;;;;;;;;;;4984405;28;20479;-57
2023/12/21 11:17:54;;;;;;;2.85;1.38;;;;;;;;;;4975404;28;20039;-58
2023/12/21 11:20:28;;;;;;;1.95;0.70;;;;;;;;;;4969747;28;20433;-58
2023/12/21 11:22:55;;;;;;;3.83;1.63;;;;;;;;;;4964452;28;20039;-57
2023/12/21 11:25:22;;;;;;;2.38;1.40;;;;;;;;;;4961273;28;20547;-59
2023/12/21 11:27:51;;;;;;;2.58;1.17;;;;;;;;;;4964759;28;20039;-57
2023/12/21 11:30:20;;;;;;;1.80;0.60;;;;;;;;;;4960172;28;20042;-61
2023/12/21 11:32:46;;;;;;;0.30;0.30;;;;;;;;;;4962976;28;20049;-58
2023/12/21 11:35:20;;;;;;;4.97;1.60;;;;;;;;;;4964677;28;20039;-58
2023/12/21 11:37:51;;;;;;;1.55;0.90;;;;;;;;;;4968186;28;20051;-57
2023/12/21 11:40:19;;;;;;;6.63;2.60;;;;;;;;;;4966073;28;20510;-57
2023/12/21 11:42:47;;;;;;;5.25;1.77;;;;;;;;;;4955192;28;20058;-54
2023/12/21 11:45:25;;;;;;;33.22;7.38;;;;;;;;;;4975344;28;20051;-59
2023/12/21 11:47:56;;;;;;;11.30;2.67;;;;;;;;;;4983956;28;20061;-59
2023/12/21 11:50:26;;;;;;;1.33;1.08;;;;;;;;;;4986860;28;20046;-61
2023/12/21 11:53:08;;;;;;;;;;;;;;;;;;4978083;28;20039;-59
2023/12/21 11:55:42;;;;;;;13.15;3.80;;;;;;;;;;4975545;28;20382;-59
2023/12/21 11:58:18;;;;;;;2.30;1.00;;;;;;;;;;4972602;28;20035;-58
2023/12/21 12:00:49;;;;;;;3.58;1.40;;;;;;;;;;4986880;28;20079;-58
2023/12/21 12:03:16;;;;;;;3.47;1.13;;;;;;;;;;4965275;28;20418;-58
2023/12/21 12:05:44;;;;;;;39.83;8.77;;;;;;;;;;4986905;28;20386;-61
2023/12/21 12:08:11;;;;;;;9.63;2.35;;;;;;;;;;4992728;28;20052;-58
2023/12/21 12:10:37;;;;;;;5.68;1.58;;;;;;;;;;4980921;28;20037;-58
2023/12/21 12:13:04;;;;;;;2.80;1.35;;;;;;;;;;4974778;28;20134;-58
2023/12/21 12:15:33;;;;;;;0.50;0.50;;;;;;;;;;4975844;28;20062;-57
2023/12/21 12:18:00;;;;;;;6.80;1.48;;;;;;;;;;4965589;28;20549;-60
2023/12/21 12:20:28;;;;;;;7.60;1.80;;;;;;;;;;4983599;28;20041;-57
2023/12/21 12:22:55;;;;;;;6.17;1.77;;;;;;;;;;4974298;28;20066;-58
2023/12/21 12:25:21;;;;;;;2.45;0.68;;;;;;;;;;4975778;28;20500;-59
2023/12/21 12:27:48;;;;;;;1.45;1.00;;;;;;;;;;4988093;28;20044;-60
2023/12/21 12:30:15;;;;;;;27.95;4.60;;;;;;;;;;4983701;28;20033;-57
2023/12/21 12:32:42;;;;;;;4.90;1.40;;;;;;;;;;4973856;28;20050;-59
2023/12/21 12:35:10;;;;;;;25.00;4.13;;;;;;;;;;4965924;28;20064;-60
2023/12/21 12:37:36;;;;;;;16.80;4.53;;;;;;;;;;4974835;28;20505;-59
2023/12/21 12:40:04;;;;;;;5.15;1.38;;;;;;;;;;4970813;28;20032;-57
2023/12/21 12:42:31;;;;;;;2.00;0.90;;;;;;;;;;4966836;28;20035;-58
2023/12/21 12:45:03;;;;;;;0.70;0.55;;;;;;;;;;4956312;28;20039;-60
2023/12/21 12:47:31;;;;;;;1.65;0.80;;;;;;;;;;4971933;28;20412;-58
2023/12/21 12:49:58;;;;;;;0.95;0.50;;;;;;;;;;4976775;28;20041;-58
2023/12/21 12:52:25;;;;;;;3.63;0.85;;;;;;;;;;4971707;28;20058;-58
2023/12/21 12:54:51;;;;;;;0.77;0.40;;;;;;;;;;4970942;28;20038;-60
2023/12/21 12:57:17;;;;;;;0.30;0.30;;;;;;;;;;4995955;28;20397;-55
2023/12/21 12:59:44;;;;;;;0.60;0.60;;;;;;;;;;5015837;28;20519;-59
2023/12/21 13:02:11;;;;;;;2.25;0.70;;;;;;;;;;5019699;28;20051;-61
2023/12/21 13:04:37;;;;;;;0.40;0.40;;;;;;;;;;4997846;28;20032;-58
2023/12/21 13:07:03;;;;;;;1.38;0.60;;;;;;;;;;5009665;28;20041;-57
2023/12/21 13:09:30;;;;;;;0.50;0.50;;;;;;;;;;5006707;28;20030;-59
2023/12/21 13:11:57;;;;;;;0.65;0.40;;;;;;;;;;5007822;28;20424;-60
2023/12/21 13:14:23;;;;;;;0.60;0.50;;;;;;;;;;4996430;28;20406;-58
2023/12/21 13:16:49;;;;;;;4.00;2.17;;;;;;;;;;4965807;28;20088;-59
2023/12/21 13:19:15;;;;;;;0.68;0.68;;;;;;;;;;4966377;28;20043;-59
2023/12/21 13:21:43;;;;;;;1.90;1.23;;;;;;;;;;4991328;22;20043;-58
2023/12/21 13:24:10;;;;;;;0.85;0.47;;;;;;;;;;4971052;28;20498;-56
2023/12/21 13:26:36;;;;;;;1.35;0.60;;;;;;;;;;4967903;28;20043;-57
2023/12/21 13:29:04;;;;;;;1.05;0.50;;;;;;;;;;4969120;28;20045;-57
2023/12/21 13:31:30;;;;;;;1.70;0.50;;;;;;;;;;4965814;28;20053;-58
2023/12/21 13:33:58;;;;;;;0.30;0.30;;;;;;;;;;4967440;28;20529;-56
2023/12/21 13:36:24;;;;;;;0.70;0.70;;;;;;;;;;4961325;28;20043;-59
2023/12/21 13:38:50;;;;;;;1.88;0.80;;;;;;;;;;4963816;28;20035;-58
2023/12/21 13:41:16;;;;;;;1.30;0.70;;;;;;;;;;4962322;28;20054;-56
2023/12/21 13:43:44;;;;;;;1.10;0.70;;;;;;;;;;4960276;28;20050;-58
2023/12/21 13:46:13;;;;;;;5.35;1.10;;;;;;;;;;4958341;28;20047;-57
2023/12/21 13:48:40;;;;;;;0.50;0.50;;;;;;;;;;4957217;28;20047;-57
2023/12/21 13:51:06;;;;;;;0.65;0.50;;;;;;;;;;4961839;28;20059;-56
2023/12/21 13:53:32;;;;;;;1.23;0.80;;;;;;;;;;4963471;28;20466;-57
2023/12/21 13:55:58;;;;;;;0.85;0.63;;;;;;;;;;4959211;28;20039;-57
2023/12/21 13:58:24;;;;;;;2.28;1.00;;;;;;;;;;4965772;28;20070;-58
2023/12/21 14:00:51;;;;;;;1.67;0.82;;;;;;;;;;4961701;28;20031;-57
2023/12/21 14:03:18;;;;;;;1.52;0.68;;;;;;;;;;4962460;28;20039;-57
2023/12/21 14:05:45;;;;;;;1.30;0.90;;;;;;;;;;4964508;28;20030;-56
2023/12/21 14:08:11;;;;;;;6.18;2.00;;;;;;;;;;4966025;28;20042;-57
2023/12/21 14:10:38;;;;;;;3.65;1.30;;;;;;;;;;4961111;28;20031;-57
2023/12/21 14:13:04;;;;;;;2.40;0.82;;;;;;;;;;4960161;28;20503;-58
2023/12/21 14:15:30;;;;;;;4.43;1.88;;;;;;;;;;4963395;28;20546;-56
2023/12/21 14:17:56;;;;;;;2.83;1.30;;;;;;;;;;4962614;28;20668;-57
2023/12/21 14:20:23;;;;;;;2.45;1.05;;;;;;;;;;4960169;28;20051;-58
2023/12/21 14:22:50;;;;;;;2.53;1.13;;;;;;;;;;4958725;28;20051;-58
2023/12/21 14:25:16;;;;;;;1.23;0.98;;;;;;;;;;4962620;28;20444;-59
2023/12/21 14:27:43;;;;;;;1.00;0.70;;;;;;;;;;4961842;28;20043;-59
2023/12/21 14:30:09;;;;;;;2.38;0.88;;;;;;;;;;4958773;28;20035;-58
2023/12/21 14:32:35;;;;;;;9.02;3.25;;;;;;;;;;4958547;28;20046;-56
2023/12/21 14:35:03;;;;;;;2.75;1.35;;;;;;;;;;4965156;28;20038;-57
2023/12/21 14:37:29;;;;;;;0.75;0.70;;;;;;;;;;4965298;28;20035;-56
2023/12/21 14:39:55;;;;;;;1.55;0.90;;;;;;;;;;4963920;28;20051;-56
2023/12/21 14:42:21;;;;;;;4.47;2.22;;;;;;;;;;4956199;28;20383;-56